createdAt,value
2018-08-25T00:01:34.075Z,18.32
2018-08-25T00:04:02.289Z,17.93
2018-08-25T00:06:30.525Z,18.01
2018-08-25T00:08:58.741Z,18.10
2018-08-25T00:11:26.958Z,17.98
2018-08-25T00:13:55.165Z,17.88
2018-08-25T00:16:23.389Z,17.67
2018-08-25T00:18:51.605Z,17.58
2018-08-25T00:21:19.826Z,17.45
2018-08-25T00:23:48.029Z,17.29
2018-08-25T00:26:16.234Z,17.03
2018-08-25T00:28:44.490Z,17.06
2018-08-25T00:31:17.926Z,17.03
2018-08-25T00:33:46.169Z,17.08
2018-08-25T00:36:14.381Z,17.01
2018-08-25T00:38:42.611Z,17.11
2018-08-25T00:41:10.853Z,17.17
2018-08-25T00:43:39.097Z,17.20
2018-08-25T00:46:07.369Z,16.91
2018-08-25T00:48:35.601Z,17.15
2018-08-25T00:51:03.949Z,17.07
2018-08-25T00:53:32.205Z,17.05
2018-08-25T00:56:00.589Z,17.17
2018-08-25T00:58:28.819Z,17.10
2018-08-25T01:00:57.087Z,16.98
2018-08-25T01:03:25.314Z,16.91
2018-08-25T01:05:53.607Z,17.04
2018-08-25T01:08:21.833Z,17.16
2018-08-25T01:10:50.077Z,17.13
2018-08-25T01:13:18.285Z,17.19
2018-08-25T01:15:46.591Z,17.13
2018-08-25T01:18:14.706Z,16.81
2018-08-25T01:20:42.920Z,17.05
2018-08-25T01:23:11.151Z,16.97
2018-08-25T01:25:39.385Z,17.01
2018-08-25T01:28:07.640Z,16.81
2018-08-25T01:30:35.862Z,16.95
2018-08-25T01:33:04.125Z,16.95
2018-08-25T01:35:32.342Z,17.09
2018-08-25T01:38:00.573Z,17.09
2018-08-25T01:40:28.809Z,17.11
2018-08-25T01:42:57.054Z,16.93
2018-08-25T01:45:25.290Z,16.84
2018-08-25T01:47:53.513Z,16.89
2018-08-25T01:50:21.751Z,16.90
2018-08-25T01:52:49.976Z,16.85
2018-08-25T01:55:18.220Z,16.78
2018-08-25T01:57:46.430Z,16.99
2018-08-25T02:00:14.645Z,16.89
2018-08-25T02:02:42.905Z,16.81
2018-08-25T02:05:11.106Z,16.84
2018-08-25T02:07:39.326Z,16.75
2018-08-25T02:10:07.573Z,16.66
2018-08-25T02:12:35.806Z,16.86
2018-08-25T02:15:04.081Z,16.71
2018-08-25T02:17:32.294Z,16.76
2018-08-25T02:20:00.501Z,16.84
2018-08-25T02:22:28.709Z,16.74
2018-08-25T02:24:56.938Z,16.69
2018-08-25T02:27:25.137Z,16.73
2018-08-25T02:29:53.424Z,16.88
2018-08-25T02:32:21.674Z,16.77
2018-08-25T02:34:49.893Z,16.78
2018-08-25T02:37:18.130Z,16.62
2018-08-25T02:39:46.375Z,16.79
2018-08-25T02:42:14.651Z,16.80
2018-08-25T02:44:42.892Z,16.72
2018-08-25T02:47:11.122Z,16.77
2018-08-25T02:49:39.335Z,16.77
2018-08-25T02:52:07.588Z,16.76
2018-08-25T02:54:35.810Z,16.71
2018-08-25T02:57:04.041Z,16.69
2018-08-25T02:59:32.267Z,16.82
2018-08-25T03:02:00.497Z,16.79
2018-08-25T03:04:28.718Z,16.91
2018-08-25T03:06:56.935Z,16.80
2018-08-25T03:09:25.133Z,16.72
2018-08-25T03:11:53.363Z,16.62
2018-08-25T03:14:21.584Z,16.45
2018-08-25T03:16:49.786Z,16.21
2018-08-25T03:19:18.017Z,16.19
2018-08-25T03:21:46.234Z,15.90
2018-08-25T03:24:14.461Z,15.95
2018-08-25T03:26:42.734Z,15.73
2018-08-25T03:29:10.953Z,15.90
2018-08-25T03:31:39.157Z,15.76
2018-08-25T03:34:07.466Z,15.67
2018-08-25T03:36:35.690Z,15.82
2018-08-25T03:39:04.466Z,15.78
2018-08-25T03:41:32.644Z,15.58
2018-08-25T03:44:00.874Z,15.71
2018-08-25T03:46:29.100Z,15.77
2018-08-25T03:48:57.310Z,15.73
2018-08-25T03:51:25.541Z,15.63
2018-08-25T03:53:53.767Z,15.54
2018-08-25T03:56:22.011Z,15.44
2018-08-25T03:58:50.311Z,15.55
2018-08-25T04:01:18.520Z,15.61
2018-08-25T04:03:46.738Z,15.41
2018-08-25T04:06:14.954Z,15.31
2018-08-25T04:08:43.199Z,15.48
2018-08-25T04:11:11.414Z,15.36
2018-08-25T04:13:39.618Z,15.38
2018-08-25T04:16:07.846Z,15.55
2018-08-25T04:18:36.057Z,15.26
2018-08-25T04:21:04.318Z,15.32
2018-08-25T04:23:32.526Z,15.47
2018-08-25T04:26:00.729Z,15.29
2018-08-25T04:28:28.946Z,15.43
2018-08-25T04:30:57.167Z,15.27
2018-08-25T04:33:25.481Z,15.37
2018-08-25T04:35:53.682Z,15.32
2018-08-25T04:38:21.894Z,15.45
2018-08-25T04:40:50.177Z,15.28
2018-08-25T04:43:18.407Z,15.38
2018-08-25T04:45:46.678Z,15.28
2018-08-25T04:48:14.889Z,15.36
2018-08-25T04:50:43.120Z,15.51
2018-08-25T04:53:11.331Z,15.25
2018-08-25T04:55:39.563Z,15.13
2018-08-25T04:58:07.782Z,15.23
2018-08-25T05:00:36.007Z,15.20
2018-08-25T05:03:04.234Z,15.25
2018-08-25T05:05:32.459Z,15.28
2018-08-25T05:08:00.669Z,15.09
2018-08-25T05:10:28.885Z,15.17
2018-08-25T05:12:57.110Z,15.24
2018-08-25T05:15:25.335Z,15.32
2018-08-25T05:17:53.547Z,15.27
2018-08-25T05:20:21.783Z,15.47
2018-08-25T05:22:50.032Z,15.48
2018-08-25T05:25:18.222Z,15.37
2018-08-25T05:27:46.450Z,15.32
2018-08-25T05:30:14.693Z,15.37
2018-08-25T05:32:42.905Z,15.47
2018-08-25T05:35:11.129Z,15.45
2018-08-25T05:37:39.351Z,15.41
2018-08-25T05:40:07.594Z,15.41
2018-08-25T05:42:35.799Z,15.43
2018-08-25T05:45:04.081Z,15.50
2018-08-25T05:47:32.291Z,15.50
2018-08-25T05:50:00.498Z,15.37
2018-08-25T05:52:28.716Z,14.94
2018-08-25T05:54:56.917Z,14.84
2018-08-25T05:57:25.161Z,14.82
2018-08-25T05:59:53.360Z,15.01
2018-08-25T06:02:21.683Z,15.01
2018-08-25T06:04:49.910Z,14.83
2018-08-25T06:07:18.178Z,14.52
2018-08-25T06:09:46.411Z,14.65
2018-08-25T06:12:14.658Z,14.67
2018-08-25T06:14:42.875Z,14.60
2018-08-25T06:17:11.098Z,14.67
2018-08-25T06:19:39.318Z,14.85
2018-08-25T06:22:07.530Z,14.58
2018-08-25T06:24:35.746Z,14.63
2018-08-25T06:27:03.998Z,14.58
2018-08-25T06:29:32.276Z,14.60
2018-08-25T06:32:00.442Z,14.64
2018-08-25T06:34:28.659Z,14.94
2018-08-25T06:36:56.914Z,15.07
2018-08-25T06:39:25.168Z,15.05
2018-08-25T06:41:53.338Z,15.15
2018-08-25T06:44:21.562Z,15.25
2018-08-25T06:46:49.786Z,15.28
2018-08-25T06:49:18.001Z,15.32
2018-08-25T06:51:46.202Z,15.26
2018-08-25T06:54:14.433Z,15.31
2018-08-25T06:56:42.637Z,15.55
2018-08-25T06:59:10.878Z,15.79
2018-08-25T07:01:39.131Z,15.29
2018-08-25T07:04:07.363Z,15.56
2018-08-25T07:06:35.806Z,15.45
2018-08-25T07:09:06.222Z,15.42
2018-08-25T07:11:34.473Z,15.64
2018-08-25T07:14:02.690Z,15.64
2018-08-25T07:16:30.914Z,15.80
2018-08-25T07:18:59.284Z,16.01
2018-08-25T07:21:27.710Z,16.41
2018-08-25T07:23:56.034Z,15.89
2018-08-25T07:26:24.251Z,16.39
2018-08-25T07:28:52.524Z,16.47
2018-08-25T07:31:20.721Z,16.95
2018-08-25T07:33:48.946Z,16.56
2018-08-25T07:36:17.171Z,16.93
2018-08-25T07:38:45.457Z,16.95
2018-08-25T07:41:13.686Z,16.83
2018-08-25T07:43:42.959Z,16.80
2018-08-25T07:46:11.182Z,16.76
2018-08-25T07:48:39.466Z,16.68
2018-08-25T07:51:07.737Z,16.59
2018-08-25T07:53:36.091Z,16.73
2018-08-25T07:56:05.867Z,17.53
2018-08-25T07:58:34.125Z,17.86
2018-08-25T08:01:02.308Z,18.19
2018-08-25T08:03:30.613Z,18.02
2018-08-25T08:05:58.897Z,19.69
2018-08-25T08:08:27.272Z,19.32
2018-08-25T08:10:55.616Z,16.86
2018-08-25T08:13:23.866Z,18.18
2018-08-25T08:15:52.130Z,18.51
2018-08-25T08:18:20.470Z,17.66
2018-08-25T08:20:48.752Z,17.17
2018-08-25T08:23:16.969Z,16.74
2018-08-25T08:25:45.244Z,16.60
2018-08-25T08:28:13.495Z,16.54
2018-08-25T08:30:41.893Z,16.56
2018-08-25T08:33:10.180Z,17.00
2018-08-25T08:35:38.497Z,16.91
2018-08-25T08:38:07.014Z,17.13
2018-08-25T08:40:35.699Z,17.41
2018-08-25T08:43:03.913Z,17.63
2018-08-25T08:45:32.320Z,17.89
2018-08-25T08:48:00.659Z,18.06
2018-08-25T08:50:29.000Z,18.15
2018-08-25T08:52:57.192Z,17.51
2018-08-25T08:55:25.414Z,17.15
2018-08-25T08:57:53.618Z,17.14
2018-08-25T09:00:21.842Z,16.99
2018-08-25T09:02:50.150Z,16.81
2018-08-25T09:05:18.357Z,16.60
2018-08-25T09:07:46.574Z,16.40
2018-08-25T09:10:14.801Z,16.35
2018-08-25T09:12:43.027Z,16.56
2018-08-25T09:15:11.251Z,16.71
2018-08-25T09:17:39.441Z,16.49
2018-08-25T09:20:07.721Z,16.71
2018-08-25T09:22:35.930Z,16.93
2018-08-25T09:25:04.190Z,16.89
2018-08-25T09:27:32.563Z,16.74
2018-08-25T09:30:00.724Z,16.68
2018-08-25T09:32:28.947Z,16.87
2018-08-25T09:34:57.154Z,16.90
2018-08-25T09:37:25.377Z,17.22
2018-08-25T09:39:53.582Z,17.29
2018-08-25T09:42:21.801Z,17.01
2018-08-25T09:44:50.019Z,17.25
2018-08-25T09:47:18.262Z,17.10
2018-08-25T09:49:46.467Z,17.22
2018-08-25T09:52:14.694Z,17.22
2018-08-25T09:54:42.930Z,17.43
2018-08-25T09:57:11.159Z,17.25
2018-08-25T09:59:39.397Z,17.14
2018-08-25T10:02:08.125Z,17.08
2018-08-25T10:04:36.383Z,16.91
2018-08-25T10:07:05.237Z,16.76
2018-08-25T10:09:33.450Z,17.10
2018-08-25T10:12:01.686Z,17.06
2018-08-25T10:14:29.903Z,16.98
2018-08-25T10:16:58.252Z,17.00
2018-08-25T10:19:26.398Z,17.17
2018-08-25T10:21:54.614Z,17.30
2018-08-25T10:24:22.847Z,17.30
2018-08-25T10:26:51.057Z,17.37
2018-08-25T10:29:19.288Z,17.40
2018-08-25T10:31:47.501Z,17.10
2018-08-25T10:34:15.730Z,17.49
2018-08-25T10:36:43.978Z,17.04
2018-08-25T10:39:13.063Z,16.92
2018-08-25T10:41:41.556Z,17.02
2018-08-25T10:44:10.010Z,17.04
2018-08-25T10:46:39.354Z,16.81
2018-08-25T10:49:07.961Z,16.79
2018-08-25T10:51:36.272Z,17.12
2018-08-25T10:54:04.509Z,17.26
2018-08-25T10:56:32.856Z,17.15
2018-08-25T10:59:01.070Z,17.16
2018-08-25T11:01:29.296Z,17.31
2018-08-25T11:03:57.502Z,17.38
2018-08-25T11:06:25.722Z,17.51
2018-08-25T11:08:53.981Z,17.63
2018-08-25T11:11:22.153Z,17.99
2018-08-25T11:13:50.363Z,18.16
2018-08-25T11:16:18.627Z,18.21
2018-08-25T11:18:46.804Z,18.28
2018-08-25T11:21:15.070Z,18.56
2018-08-25T11:23:43.304Z,18.62
2018-08-25T11:26:11.519Z,18.45
2018-08-25T11:28:39.771Z,18.48
2018-08-25T11:31:08.010Z,18.66
2018-08-25T11:33:36.259Z,18.78
2018-08-25T11:36:04.483Z,18.74
2018-08-25T11:38:32.694Z,18.91
2018-08-25T11:41:00.919Z,18.94
2018-08-25T11:43:29.137Z,19.01
2018-08-25T11:45:57.386Z,18.95
2018-08-25T11:48:25.594Z,18.76
2018-08-25T11:50:53.805Z,18.49
2018-08-25T11:53:22.034Z,18.73
2018-08-25T11:55:50.260Z,18.67
2018-08-25T11:58:18.475Z,18.83
2018-08-25T12:00:46.714Z,18.69
2018-08-25T12:03:14.922Z,18.49
2018-08-25T12:05:43.161Z,18.63
2018-08-25T12:08:11.391Z,18.54
2018-08-25T12:10:39.597Z,18.48
2018-08-25T12:13:07.834Z,18.51
2018-08-25T12:15:36.051Z,18.25
2018-08-25T12:18:04.300Z,18.42
2018-08-25T12:20:32.527Z,18.40
2018-08-25T12:23:00.734Z,18.65
2018-08-25T12:25:28.971Z,18.97
2018-08-25T12:27:57.177Z,18.82
2018-08-25T12:30:25.423Z,19.02
2018-08-25T12:32:53.611Z,19.15
2018-08-25T12:35:21.829Z,19.35
2018-08-25T12:37:50.344Z,19.45
2018-08-25T12:40:18.715Z,19.57
2018-08-25T12:42:46.985Z,19.90
2018-08-25T12:45:15.198Z,19.50
2018-08-25T12:47:43.415Z,19.74
2018-08-25T12:50:11.625Z,20.28
2018-08-25T12:52:39.912Z,20.49
2018-08-25T12:55:08.206Z,20.49
2018-08-25T12:57:38.418Z,20.85
2018-08-25T13:00:06.782Z,20.42
2018-08-25T13:02:35.007Z,20.61
2018-08-25T13:05:03.238Z,20.65
2018-08-25T13:07:31.461Z,20.36
2018-08-25T13:09:59.685Z,20.12
2018-08-25T13:12:27.891Z,19.71
2018-08-25T13:14:56.118Z,19.81
2018-08-25T13:17:24.343Z,19.74
2018-08-25T13:19:52.739Z,19.77
2018-08-25T13:22:21.117Z,19.88
2018-08-25T13:24:49.355Z,19.64
2018-08-25T13:27:17.661Z,19.64
2018-08-25T13:29:45.866Z,19.37
2018-08-25T13:32:14.127Z,19.18
2018-08-25T13:34:42.362Z,18.79
2018-08-25T13:37:10.581Z,18.53
2018-08-25T13:39:38.813Z,18.50
2018-08-25T13:42:07.091Z,18.64
2018-08-25T13:44:35.430Z,18.39
2018-08-25T13:47:04.100Z,18.55
2018-08-25T13:49:32.326Z,18.84
2018-08-25T13:52:00.584Z,19.00
2018-08-25T13:54:28.818Z,19.16
2018-08-25T13:56:57.052Z,18.93
2018-08-25T13:59:25.266Z,18.91
2018-08-25T14:01:53.485Z,19.06
2018-08-25T14:04:21.707Z,19.45
2018-08-25T14:06:49.986Z,19.34
2018-08-25T14:09:18.190Z,19.22
2018-08-25T14:11:46.397Z,19.11
2018-08-25T14:14:14.616Z,19.02
2018-08-25T14:16:42.839Z,18.87
2018-08-25T14:19:11.047Z,19.16
2018-08-25T14:21:39.263Z,19.01
2018-08-25T14:24:07.512Z,19.08
2018-08-25T14:26:40.048Z,19.14
2018-08-25T14:29:08.298Z,19.34
2018-08-25T14:31:36.518Z,19.24
2018-08-25T14:34:04.764Z,19.20
2018-08-25T14:36:32.996Z,19.25
2018-08-25T14:39:01.285Z,19.56
2018-08-25T14:41:29.629Z,19.07
2018-08-25T14:43:57.832Z,19.59
2018-08-25T14:46:26.078Z,19.38
2018-08-25T14:48:54.278Z,19.58
2018-08-25T14:51:22.523Z,19.36
2018-08-25T14:53:50.731Z,18.81
2018-08-25T14:56:19.005Z,18.31
2018-08-25T14:58:47.235Z,18.02
2018-08-25T15:01:15.540Z,18.21
2018-08-25T15:03:43.770Z,17.96
2018-08-25T15:06:11.978Z,17.89
2018-08-25T15:08:40.208Z,17.52
2018-08-25T15:11:08.427Z,16.78
2018-08-25T15:13:36.675Z,16.66
2018-08-25T15:16:05.014Z,15.91
2018-08-25T15:18:33.228Z,15.59
2018-08-25T15:21:01.442Z,15.66
2018-08-25T15:23:29.659Z,15.30
2018-08-25T15:25:57.910Z,15.24
2018-08-25T15:28:26.138Z,15.13
2018-08-25T15:30:54.419Z,15.04
2018-08-25T15:33:22.641Z,15.24
2018-08-25T15:35:50.968Z,15.03
2018-08-25T15:38:23.153Z,15.01
2018-08-25T15:40:51.383Z,14.98
2018-08-25T15:43:19.666Z,15.02
2018-08-25T15:45:47.890Z,15.27
2018-08-25T15:48:16.157Z,15.31
2018-08-25T15:50:44.390Z,15.64
2018-08-25T15:53:12.599Z,15.56
2018-08-25T15:55:41.914Z,15.34
2018-08-25T15:58:10.149Z,15.60
2018-08-25T16:00:38.362Z,15.81
2018-08-25T16:03:06.613Z,16.21
2018-08-25T16:05:34.842Z,15.95
2018-08-25T16:08:03.142Z,16.04
2018-08-25T16:10:32.465Z,15.78
2018-08-25T16:13:02.565Z,15.74
2018-08-25T16:15:30.776Z,16.15
2018-08-25T16:17:58.998Z,16.10
2018-08-25T16:20:27.435Z,16.08
2018-08-25T16:22:57.228Z,16.20
2018-08-25T16:25:25.479Z,16.43
2018-08-25T16:27:53.709Z,16.63
2018-08-25T16:30:21.911Z,16.33
2018-08-25T16:32:50.238Z,16.43
2018-08-25T16:35:18.476Z,16.58
2018-08-25T16:37:46.689Z,16.42
2018-08-25T16:40:15.063Z,16.63
2018-08-25T16:42:43.262Z,16.67
2018-08-25T16:45:11.537Z,16.85
2018-08-25T16:47:39.733Z,16.83
2018-08-25T16:50:08.054Z,16.91
2018-08-25T16:52:36.277Z,16.60
2018-08-25T16:55:04.589Z,16.42
2018-08-25T16:57:32.774Z,16.58
2018-08-25T17:00:00.973Z,16.52
2018-08-25T17:02:29.203Z,16.37
2018-08-25T17:04:57.419Z,16.20
2018-08-25T17:07:25.678Z,16.23
2018-08-25T17:09:53.898Z,16.43
2018-08-25T17:12:22.130Z,16.38
2018-08-25T17:14:50.354Z,16.44
2018-08-25T17:17:18.591Z,16.60
2018-08-25T17:19:46.810Z,16.36
2018-08-25T17:22:15.021Z,16.70
2018-08-25T17:24:43.343Z,16.65
2018-08-25T17:27:11.588Z,16.59
2018-08-25T17:29:39.809Z,16.72
2018-08-25T17:32:08.039Z,16.71
2018-08-25T17:34:36.274Z,16.75
2018-08-25T17:37:05.574Z,16.45
2018-08-25T17:39:33.784Z,16.58
2018-08-25T17:42:02.007Z,16.23
2018-08-25T17:44:30.407Z,16.57
2018-08-25T17:46:58.654Z,16.82
2018-08-25T17:49:27.143Z,16.85
2018-08-25T17:51:55.349Z,16.81
2018-08-25T17:54:23.579Z,16.75
2018-08-25T17:56:51.840Z,17.00
2018-08-25T17:59:20.030Z,17.02
2018-08-25T18:01:48.245Z,16.65
2018-08-25T18:04:16.452Z,16.83
2018-08-25T18:06:44.687Z,16.95
2018-08-25T18:09:12.902Z,16.91
2018-08-25T18:11:41.126Z,16.86
2018-08-25T18:14:09.340Z,16.80
2018-08-25T18:16:37.571Z,16.66
2018-08-25T18:19:06.247Z,16.65
2018-08-25T18:21:34.464Z,16.63
2018-08-25T18:24:02.688Z,16.65
2018-08-25T18:26:30.914Z,16.70
2018-08-25T18:28:59.134Z,16.65
2018-08-25T18:31:27.418Z,16.75
2018-08-25T18:33:55.657Z,16.70
2018-08-25T18:36:23.877Z,16.80
2018-08-25T18:38:52.095Z,16.73
2018-08-25T18:41:20.319Z,16.83
2018-08-25T18:43:48.574Z,16.38
2018-08-25T18:46:16.797Z,16.59
2018-08-25T18:48:45.028Z,16.72
2018-08-25T18:51:13.245Z,16.63
2018-08-25T18:53:41.452Z,16.46
2018-08-25T18:56:09.728Z,16.59
2018-08-25T18:58:38.090Z,16.24
2018-08-25T19:01:06.361Z,15.95
2018-08-25T19:03:34.612Z,15.85
2018-08-25T19:06:02.842Z,16.23
2018-08-25T19:08:31.057Z,16.17
2018-08-25T19:10:59.445Z,16.33
2018-08-25T19:13:27.658Z,15.73
2018-08-25T19:15:55.866Z,15.77
2018-08-25T19:18:24.083Z,15.73
2018-08-25T19:20:52.289Z,15.67
2018-08-25T19:23:20.514Z,15.58
2018-08-25T19:25:48.740Z,15.49
2018-08-25T19:28:16.941Z,15.50
2018-08-25T19:30:45.159Z,15.59
2018-08-25T19:33:13.407Z,15.29
2018-08-25T19:35:41.733Z,15.48
2018-08-25T19:38:09.862Z,15.33
2018-08-25T19:40:38.067Z,15.36
2018-08-25T19:43:06.301Z,15.29
2018-08-25T19:45:34.517Z,15.10
2018-08-25T19:48:02.754Z,15.11
2018-08-25T19:50:31.019Z,14.92
2018-08-25T19:52:59.302Z,14.88
2018-08-25T19:55:27.489Z,15.13
2018-08-25T19:57:55.726Z,14.99
2018-08-25T20:00:24.029Z,14.77
2018-08-25T20:02:52.145Z,14.97
2018-08-25T20:05:20.381Z,15.08
2018-08-25T20:07:48.693Z,15.00
2018-08-25T20:10:16.901Z,14.99
2018-08-25T20:12:45.102Z,14.87
2018-08-25T20:15:13.781Z,14.92
2018-08-25T20:17:50.599Z,14.47
2018-08-25T20:20:23.170Z,14.82
2018-08-25T20:22:51.799Z,14.55
2018-08-25T20:25:22.715Z,14.56
2018-08-25T20:27:51.277Z,14.50
2018-08-25T20:30:19.882Z,14.50
2018-08-25T20:32:48.522Z,14.55
2018-08-25T20:35:17.114Z,14.56
2018-08-25T20:37:45.731Z,14.44
2018-08-25T20:40:14.254Z,14.52
2018-08-25T20:42:42.931Z,14.40
2018-08-25T20:45:11.483Z,14.47
2018-08-25T20:47:40.054Z,14.17
2018-08-25T20:50:08.766Z,14.01
2018-08-25T20:52:37.650Z,14.23
2018-08-25T20:55:05.931Z,13.80
2018-08-25T20:57:34.562Z,14.03
2018-08-25T21:00:04.925Z,13.80
2018-08-25T21:02:33.565Z,14.04
2018-08-25T21:05:02.202Z,14.24
2018-08-25T21:07:30.824Z,14.21
2018-08-25T21:09:59.038Z,14.07
2018-08-25T21:12:28.760Z,14.09
2018-08-25T21:14:57.462Z,14.01
2018-08-25T21:17:26.091Z,14.04
2018-08-25T21:22:32.136Z,14.00
2018-08-25T21:25:00.337Z,13.81
2018-08-25T21:27:29.115Z,13.94
2018-08-25T21:29:57.330Z,13.99
2018-08-25T21:32:25.546Z,13.91
2018-08-25T21:34:54.354Z,13.96
2018-08-25T21:37:22.559Z,14.00
2018-08-25T21:39:50.757Z,14.10
2018-08-25T21:42:19.601Z,13.93
2018-08-25T21:44:48.598Z,13.75
2018-08-25T21:47:17.221Z,14.04
2018-08-25T21:49:46.029Z,13.92
2018-08-25T21:54:54.234Z,14.00
2018-08-25T21:57:22.433Z,13.95
2018-08-25T21:59:50.905Z,13.84
2018-08-25T22:02:19.784Z,13.93
2018-08-25T22:04:48.495Z,13.74
2018-08-25T22:07:17.053Z,13.91
2018-08-25T22:09:45.662Z,14.03
2018-08-25T22:12:13.857Z,13.92
2018-08-25T22:14:42.481Z,13.67
2018-08-25T22:17:11.101Z,13.79
2018-08-25T22:19:39.784Z,13.78
2018-08-25T22:22:08.346Z,13.85
2018-08-25T22:24:36.594Z,13.75
2018-08-25T22:27:08.298Z,13.75
2018-08-25T22:29:36.989Z,13.63
2018-08-25T22:32:05.566Z,13.78
2018-08-25T22:34:34.112Z,13.81
2018-08-25T22:37:02.702Z,13.75
2018-08-25T22:39:31.324Z,13.60
2018-08-25T22:42:01.201Z,13.64
2018-08-25T22:44:29.976Z,13.60
2018-08-25T22:47:00.822Z,13.67
2018-08-25T22:49:29.138Z,13.45
2018-08-25T22:51:58.715Z,13.46
2018-08-25T22:54:27.397Z,13.29
2018-08-25T22:56:56.310Z,13.21
2018-08-25T22:59:24.995Z,13.36
2018-08-25T23:01:53.238Z,13.49
2018-08-25T23:04:21.532Z,13.35
2018-08-25T23:06:49.788Z,13.42
2018-08-25T23:09:17.998Z,13.36
2018-08-25T23:11:46.277Z,13.31
2018-08-25T23:14:14.489Z,13.35
2018-08-25T23:16:42.709Z,13.33
2018-08-25T23:19:10.926Z,13.35
2018-08-25T23:21:39.141Z,13.20
2018-08-25T23:24:07.353Z,13.08
2018-08-25T23:26:35.559Z,13.16
2018-08-25T23:29:03.788Z,13.15
2018-08-25T23:31:32.000Z,13.09
2018-08-25T23:34:00.282Z,12.78
2018-08-25T23:36:28.493Z,12.84
2018-08-25T23:38:56.706Z,12.97
2018-08-25T23:41:24.918Z,12.98
2018-08-25T23:43:53.150Z,12.94
2018-08-25T23:46:21.363Z,12.76
2018-08-25T23:48:49.566Z,13.15
2018-08-25T23:51:17.790Z,12.90
2018-08-25T23:53:45.997Z,12.96
2018-08-25T23:56:14.227Z,12.77
2018-08-25T23:58:42.472Z,12.82
